Time;durP1;ratioP1;P1;durP2;ratioP2;P2;SDS_P1;SDS_P2;PMS_P1;PMS_P2;Temp;Humidity;BMP_temperature;BMP_pressure;BME280_temperature;BME280_humidity;BME280_pressure;Samples;Min_cycle;Max_cycle;Signal;HPM_P1;HPM_P2
2022/05/09 00:01:25;;;;;;;3.00;2.70;;;;;;;;;;5053934;28;20036;-73
2022/05/09 00:03:51;;;;;;;3.20;3.00;;;;;;;;;;5054047;28;20028;-73
2022/05/09 00:06:16;;;;;;;3.65;3.35;;;;;;;;;;5036415;28;20037;-71
2022/05/09 00:08:48;;;;;;;7.75;5.15;;;;;;;;;;5054178;28;20024;-71
2022/05/09 00:11:14;;;;;;;5.30;3.97;;;;;;;;;;5053835;28;20401;-74
2022/05/09 00:13:41;;;;;;;3.70;3.40;;;;;;;;;;5054307;28;20043;-73
2022/05/09 00:16:07;;;;;;;4.32;3.92;;;;;;;;;;5053939;28;20400;-75
2022/05/09 00:18:33;;;;;;;3.95;3.55;;;;;;;;;;5053977;28;20029;-75
2022/05/09 00:20:58;;;;;;;4.97;4.13;;;;;;;;;;5052955;28;20040;-74
2022/05/09 00:23:23;;;;;;;4.00;3.60;;;;;;;;;;5053718;28;20025;-73
2022/05/09 00:25:49;;;;;;;3.53;3.22;;;;;;;;;;5053989;28;20047;-72
2022/05/09 00:28:15;;;;;;;3.95;3.25;;;;;;;;;;5053658;28;20063;-71
2022/05/09 00:30:40;;;;;;;6.50;3.60;;;;;;;;;;5053495;28;20025;-72
2022/05/09 00:33:06;;;;;;;3.17;2.97;;;;;;;;;;5053648;28;20056;-71
2022/05/09 00:35:31;;;;;;;3.58;3.28;;;;;;;;;;5053637;28;20025;-72
2022/05/09 00:37:56;;;;;;;5.53;4.18;;;;;;;;;;5053962;28;20028;-71
2022/05/09 00:40:22;;;;;;;5.20;3.85;;;;;;;;;;5035681;28;20029;-72
2022/05/09 00:42:48;;;;;;;4.10;3.80;;;;;;;;;;5053791;28;20024;-72
2022/05/09 00:45:14;;;;;;;3.85;3.55;;;;;;;;;;5053578;28;20063;-71
2022/05/09 00:47:40;;;;;;;4.28;3.65;;;;;;;;;;5053510;28;20017;-71
2022/05/09 00:50:06;;;;;;;4.72;4.32;;;;;;;;;;5053625;28;20051;-71
2022/05/09 00:52:36;;;;;;;6.82;4.65;;;;;;;;;;5053777;28;20020;-71
2022/05/09 00:55:06;;;;;;;6.40;4.70;;;;;;;;;;5035795;28;20029;-72
2022/05/09 00:57:43;;;;;;;8.75;4.35;;;;;;;;;;5035723;28;20039;-72
2022/05/09 01:00:10;;;;;;;6.97;5.13;;;;;;;;;;5053650;28;20025;-72
2022/05/09 01:02:37;;;;;;;5.35;4.05;;;;;;;;;;5053535;28;20024;-71
2022/05/09 01:05:02;;;;;;;6.35;4.38;;;;;;;;;;5053166;28;20037;-71
2022/05/09 01:07:28;;;;;;;5.95;4.50;;;;;;;;;;5053496;28;20083;-72
2022/05/09 01:09:53;;;;;;;7.07;4.63;;;;;;;;;;5053437;28;20021;-72
2022/05/09 01:12:31;;;;;;;6.88;4.97;;;;;;;;;;5053268;28;20091;-71
2022/05/09 01:14:59;;;;;;;4.85;3.88;;;;;;;;;;5053415;28;20029;-72
2022/05/09 01:17:24;;;;;;;3.08;2.80;;;;;;;;;;5053519;28;20059;-72
2022/05/09 01:19:52;;;;;;;3.30;2.70;;;;;;;;;;5053625;28;20037;-72
2022/05/09 01:22:18;;;;;;;3.90;2.50;;;;;;;;;;5053535;28;20051;-72
2022/05/09 01:24:43;;;;;;;3.20;2.90;;;;;;;;;;5053195;28;20029;-72
2022/05/09 01:27:09;;;;;;;2.80;2.60;;;;;;;;;;5052974;28;20385;-72
2022/05/09 01:29:49;;;;;;;4.88;2.55;;;;;;;;;;5035654;28;20037;-71
2022/05/09 01:32:16;;;;;;;2.97;2.70;;;;;;;;;;5055014;28;20163;-71
2022/05/09 01:34:45;;;;;;;2.97;2.67;;;;;;;;;;5056829;28;20021;-72
2022/05/09 01:37:11;;;;;;;3.42;2.67;;;;;;;;;;5056723;28;20029;-72
2022/05/09 01:39:37;;;;;;;3.22;2.88;;;;;;;;;;5057005;28;20025;-73
2022/05/09 01:42:07;;;;;;;4.15;2.55;;;;;;;;;;5056863;28;20040;-73
2022/05/09 01:44:33;;;;;;;2.97;2.78;;;;;;;;;;5056600;28;20032;-72
2022/05/09 01:49:42;;;;;;;3.30;2.60;;;;;;;;;;5056316;28;20477;-72
2022/05/09 01:52:08;;;;;;;2.65;2.45;;;;;;;;;;5056350;28;20024;-71
2022/05/09 01:54:34;;;;;;;3.38;2.75;;;;;;;;;;5056698;28;20028;-71
2022/05/09 01:56:59;;;;;;;4.07;3.00;;;;;;;;;;5056694;28;20021;-71
2022/05/09 01:59:25;;;;;;;2.75;2.55;;;;;;;;;;5038777;28;20118;-72
2022/05/09 02:01:59;;;;;;;3.55;3.00;;;;;;;;;;5056735;28;20021;-72
2022/05/09 02:04:25;;;;;;;3.55;3.10;;;;;;;;;;5056025;28;20504;-71
2022/05/09 02:06:51;;;;;;;3.35;3.05;;;;;;;;;;5056359;28;20024;-74
2022/05/09 02:09:16;;;;;;;3.53;3.22;;;;;;;;;;5056392;28;20017;-74
2022/05/09 02:11:41;;;;;;;6.38;3.70;;;;;;;;;;5056207;28;20440;-74
2022/05/09 02:14:07;;;;;;;3.97;3.10;;;;;;;;;;5056381;28;20035;-74
2022/05/09 02:16:33;;;;;;;4.07;3.20;;;;;;;;;;5038090;28;20519;-74
2022/05/09 02:18:58;;;;;;;3.83;3.53;;;;;;;;;;5055976;28;20029;-73
2022/05/09 02:21:23;;;;;;;4.50;3.38;;;;;;;;;;5056386;28;20031;-74
2022/05/09 02:23:49;;;;;;;6.93;4.07;;;;;;;;;;5055944;28;20033;-74
2022/05/09 02:26:14;;;;;;;4.45;4.05;;;;;;;;;;5056086;28;20017;-74
2022/05/09 02:28:40;;;;;;;3.50;3.20;;;;;;;;;;5055671;28;20040;-74
2022/05/09 02:31:05;;;;;;;3.75;3.45;;;;;;;;;;5038282;28;20070;-74
2022/05/09 02:33:31;;;;;;;5.20;3.47;;;;;;;;;;5055641;28;20151;-74
2022/05/09 02:35:56;;;;;;;3.35;3.05;;;;;;;;;;5055839;28;20035;-73
2022/05/09 02:38:24;;;;;;;6.13;4.03;;;;;;;;;;5055976;28;20033;-73
2022/05/09 02:40:52;;;;;;;;;;;;;;;;;;5056198;28;20029;-74
2022/05/09 02:43:18;;;;;;;3.78;3.42;;;;;;;;;;5054727;28;19917;-74
2022/05/09 02:45:43;;;;;;;4.15;3.85;;;;;;;;;;5055924;28;20021;-72
2022/05/09 02:48:10;;;;;;;3.58;3.28;;;;;;;;;;5055811;28;20033;-72
2022/05/09 02:50:35;;;;;;;4.32;3.45;;;;;;;;;;5055711;28;20021;-72
2022/05/09 02:53:01;;;;;;;5.43;3.50;;;;;;;;;;5055376;28;20407;-72
2022/05/09 02:55:26;;;;;;;3.22;3.00;;;;;;;;;;5055673;28;20052;-72
2022/05/09 02:57:52;;;;;;;15.27;3.67;;;;;;;;;;5055394;28;20036;-72
2022/05/09 03:00:21;;;;;;;3.63;3.33;;;;;;;;;;5055417;28;20449;-71
2022/05/09 03:04:38;;;;;;;3.15;2.95;;;;;;;;;;5055383;28;20046;-71
2022/05/09 03:05:32;;;;;;;2.97;2.78;;;;;;;;;;5037304;28;20049;-71
2022/05/09 03:07:58;;;;;;;4.10;3.00;;;;;;;;;;5055647;28;20025;-72
2022/05/09 03:10:23;;;;;;;3.25;3.03;;;;;;;;;;5055256;28;20025;-72
2022/05/09 03:12:49;;;;;;;4.32;3.28;;;;;;;;;;5055022;28;20072;-72
2022/05/09 03:15:15;;;;;;;3.53;2.90;;;;;;;;;;5055356;28;20029;-73
2022/05/09 03:17:42;;;;;;;3.38;3.17;;;;;;;;;;5055285;28;20013;-77
2022/05/09 03:20:08;;;;;;;4.47;3.47;;;;;;;;;;5054916;28;20047;-77
2022/05/09 03:22:34;;;;;;;4.15;3.15;;;;;;;;;;5054873;28;20044;-77
2022/05/09 03:24:59;;;;;;;4.57;3.28;;;;;;;;;;5054451;28;20465;-75
2022/05/09 03:27:25;;;;;;;3.45;3.15;;;;;;;;;;5036494;28;20021;-75
2022/05/09 03:29:50;;;;;;;3.35;3.08;;;;;;;;;;5054637;28;20029;-73
2022/05/09 03:32:15;;;;;;;5.55;3.50;;;;;;;;;;5054906;28;20017;-73
2022/05/09 03:34:41;;;;;;;3.55;3.25;;;;;;;;;;5055021;28;20033;-73
2022/05/09 03:37:06;;;;;;;4.00;3.60;;;;;;;;;;5055015;28;20025;-73
2022/05/09 03:39:32;;;;;;;3.67;3.38;;;;;;;;;;5054956;28;20033;-72
2022/05/09 03:41:57;;;;;;;3.70;3.33;;;;;;;;;;5054824;28;20110;-72
2022/05/09 03:44:23;;;;;;;3.83;3.25;;;;;;;;;;5054545;28;20040;-72
2022/05/09 03:46:48;;;;;;;3.70;3.40;;;;;;;;;;5054196;28;20372;-72
2022/05/09 03:49:14;;;;;;;3.78;3.47;;;;;;;;;;5054426;28;20032;-72
2022/05/09 03:51:39;;;;;;;4.45;3.15;;;;;;;;;;5054446;28;20017;-72
2022/05/09 03:54:05;;;;;;;3.50;3.20;;;;;;;;;;5054277;28;20095;-71
2022/05/09 03:56:30;;;;;;;3.67;3.35;;;;;;;;;;5054447;28;20032;-72
2022/05/09 03:58:55;;;;;;;4.18;3.00;;;;;;;;;;5054350;28;20457;-72
2022/05/09 04:01:21;;;;;;;3.25;3.05;;;;;;;;;;5054259;28;20032;-72
2022/05/09 04:03:47;;;;;;;3.55;3.25;;;;;;;;;;5053604;28;20040;-71
2022/05/09 04:06:12;;;;;;;3.90;3.17;;;;;;;;;;5053362;28;20013;-72
2022/05/09 04:08:38;;;;;;;3.53;3.13;;;;;;;;;;5053489;28;20083;-73
2022/05/09 04:11:04;;;;;;;3.78;3.40;;;;;;;;;;5053400;28;20076;-72
2022/05/09 04:13:29;;;;;;;3.60;3.30;;;;;;;;;;5050498;28;20076;-72
2022/05/09 04:18:41;;;;;;;5.20;3.75;;;;;;;;;;5049950;28;20091;-72
2022/05/09 04:21:07;;;;;;;6.60;3.28;;;;;;;;;;5049544;28;20056;-72
2022/05/09 04:23:33;;;;;;;4.00;3.63;;;;;;;;;;5049894;28;20063;-71
2022/05/09 04:25:59;;;;;;;4.20;2.97;;;;;;;;;;5049434;28;20520;-71
2022/05/09 04:28:24;;;;;;;3.28;2.97;;;;;;;;;;5047548;28;20075;-71
2022/05/09 04:30:56;;;;;;;3.88;2.85;;;;;;;;;;5047572;28;20025;-71
2022/05/09 04:33:21;;;;;;;4.38;3.20;;;;;;;;;;5048962;28;20132;-71
2022/05/09 04:35:46;;;;;;;3.63;3.40;;;;;;;;;;5048175;28;20031;-71
2022/05/09 04:38:18;;;;;;;2.90;2.65;;;;;;;;;;5049024;28;20279;-71
2022/05/09 04:40:44;;;;;;;3.17;2.97;;;;;;;;;;5048955;28;20036;-71
2022/05/09 04:43:09;;;;;;;3.95;2.80;;;;;;;;;;5048103;28;20427;-71
2022/05/09 04:45:35;;;;;;;3.15;2.85;;;;;;;;;;5030674;28;20066;-71
2022/05/09 04:48:02;;;;;;;3.40;3.10;;;;;;;;;;5049547;28;20013;-71
2022/05/09 04:50:28;;;;;;;4.25;3.05;;;;;;;;;;5049439;28;20025;-71
2022/05/09 04:52:54;;;;;;;3.42;2.90;;;;;;;;;;5048800;28;20035;-72
2022/05/09 04:55:20;;;;;;;4.43;3.10;;;;;;;;;;5048162;28;20086;-71
2022/05/09 04:57:47;;;;;;;4.03;2.90;;;;;;;;;;5048793;28;20033;-71
2022/05/09 05:00:14;;;;;;;4.90;2.67;;;;;;;;;;5048772;28;20056;-71
2022/05/09 05:02:39;;;;;;;4.55;3.08;;;;;;;;;;5048691;28;20435;-71
2022/05/09 05:05:05;;;;;;;3.90;3.53;;;;;;;;;;5048354;28;20124;-71
2022/05/09 05:07:30;;;;;;;4.18;3.10;;;;;;;;;;5050863;28;20461;-71
2022/05/09 05:09:56;;;;;;;4.68;3.40;;;;;;;;;;5052253;28;20049;-71
2022/05/09 05:12:21;;;;;;;4.43;3.20;;;;;;;;;;5052632;28;20052;-71
2022/05/09 05:14:46;;;;;;;3.25;3.00;;;;;;;;;;5051873;28;20136;-71
2022/05/09 05:17:11;;;;;;;3.47;2.78;;;;;;;;;;5052516;28;20036;-72
2022/05/09 05:19:40;;;;;;;3.50;3.20;;;;;;;;;;5052493;28;20131;-72
2022/05/09 05:22:09;;;;;;;3.72;2.85;;;;;;;;;;5052086;28;20538;-71
2022/05/09 05:24:35;;;;;;;3.65;2.97;;;;;;;;;;5052022;28;20065;-71
2022/05/09 05:27:00;;;;;;;3.30;3.00;;;;;;;;;;5052433;28;20108;-71
2022/05/09 05:29:26;;;;;;;3.40;3.00;;;;;;;;;;5052050;28;20148;-71
2022/05/09 05:31:52;;;;;;;4.43;3.22;;;;;;;;;;5052180;28;20575;-71
2022/05/09 05:34:18;;;;;;;5.68;3.25;;;;;;;;;;5051700;28;20472;-71
2022/05/09 05:36:43;;;;;;;3.10;2.80;;;;;;;;;;5051915;28;20028;-71
2022/05/09 05:39:13;;;;;;;5.32;3.20;;;;;;;;;;5053629;28;20067;-72
2022/05/09 05:41:38;;;;;;;4.60;3.05;;;;;;;;;;5054061;28;20781;-71
2022/05/09 05:44:06;;;;;;;3.03;2.72;;;;;;;;;;5053538;28;20057;-72
2022/05/09 05:46:31;;;;;;;4.32;3.28;;;;;;;;;;5054087;28;20571;-72
2022/05/09 05:48:56;;;;;;;2.88;2.63;;;;;;;;;;5053550;28;20072;-71
2022/05/09 05:51:22;;;;;;;5.75;3.05;;;;;;;;;;5035672;28;20017;-72
2022/05/09 05:53:47;;;;;;;3.28;2.92;;;;;;;;;;5053613;28;20113;-71
2022/05/09 05:56:12;;;;;;;5.18;2.95;;;;;;;;;;5053894;28;20023;-71
2022/05/09 05:58:38;;;;;;;4.47;3.20;;;;;;;;;;5053426;28;20021;-71
2022/05/09 06:01:03;;;;;;;7.10;3.10;;;;;;;;;;5053569;28;20021;-71
2022/05/09 06:03:29;;;;;;;3.30;3.00;;;;;;;;;;5053277;28;20116;-71
2022/05/09 06:05:54;;;;;;;3.67;2.83;;;;;;;;;;5053465;28;20515;-71
2022/05/09 06:08:19;;;;;;;2.70;2.45;;;;;;;;;;5053542;28;20029;-72
2022/05/09 06:10:45;;;;;;;4.28;2.50;;;;;;;;;;5052905;28;20049;-71
2022/05/09 06:13:13;;;;;;;2.40;2.22;;;;;;;;;;5052876;28;20025;-71
2022/05/09 06:15:42;;;;;;;3.83;2.42;;;;;;;;;;5052945;28;20041;-71
2022/05/09 06:18:09;;;;;;;2.88;2.35;;;;;;;;;;5051832;28;20032;-71
2022/05/09 06:20:40;;;;;;;5.22;2.88;;;;;;;;;;5053377;28;20060;-71
2022/05/09 06:23:06;;;;;;;3.40;2.35;;;;;;;;;;5053244;28;20119;-71
2022/05/09 06:25:34;;;;;;;3.35;2.70;;;;;;;;;;5052868;28;20017;-72
2022/05/09 06:28:00;;;;;;;3.33;2.80;;;;;;;;;;5053060;28;20123;-72
2022/05/09 06:30:26;;;;;;;5.80;2.63;;;;;;;;;;5053089;28;20164;-71
2022/05/09 06:32:52;;;;;;;3.17;2.60;;;;;;;;;;5053095;28;20025;-72
2022/05/09 06:35:20;;;;;;;3.53;2.17;;;;;;;;;;5052559;28;20069;-71
2022/05/09 06:37:46;;;;;;;3.42;2.88;;;;;;;;;;5051142;28;20548;-71
2022/05/09 06:40:12;;;;;;;5.03;2.80;;;;;;;;;;5052739;28;20052;-71
2022/05/09 06:42:37;;;;;;;4.97;2.83;;;;;;;;;;5054203;28;20114;-71
2022/05/09 06:45:03;;;;;;;3.75;2.25;;;;;;;;;;5034898;28;20033;-71
2022/05/09 06:47:29;;;;;;;2.90;2.60;;;;;;;;;;5052761;28;20060;-71
2022/05/09 06:49:57;;;;;;;3.83;2.65;;;;;;;;;;5052589;28;20035;-71
2022/05/09 06:52:23;;;;;;;4.53;3.00;;;;;;;;;;5052723;28;20041;-71
2022/05/09 06:54:48;;;;;;;5.27;2.50;;;;;;;;;;5052394;28;20032;-71
2022/05/09 06:57:13;;;;;;;3.58;2.33;;;;;;;;;;5052656;28;20301;-71
2022/05/09 06:59:42;;;;;;;4.50;2.35;;;;;;;;;;5052606;28;20091;-71
2022/05/09 07:02:11;;;;;;;2.42;2.22;;;;;;;;;;5052471;28;20036;-71
2022/05/09 07:04:37;;;;;;;3.67;2.30;;;;;;;;;;5052381;28;20060;-71
2022/05/09 07:07:02;;;;;;;3.72;2.30;;;;;;;;;;5051196;28;20477;-71
2022/05/09 07:09:28;;;;;;;4.57;2.38;;;;;;;;;;5050495;28;20451;-71
2022/05/09 07:11:54;;;;;;;4.88;2.38;;;;;;;;;;5050477;28;20559;-71
2022/05/09 07:14:20;;;;;;;3.83;2.58;;;;;;;;;;5050187;28;20047;-71
2022/05/09 07:16:45;;;;;;;4.22;2.20;;;;;;;;;;5050679;28;20170;-75
2022/05/09 07:19:11;;;;;;;7.30;2.28;;;;;;;;;;5054043;28;20029;-74
2022/05/09 07:21:37;;;;;;;4.43;2.80;;;;;;;;;;5054139;28;20017;-76
2022/05/09 07:24:03;;;;;;;4.05;2.20;;;;;;;;;;5053805;28;20094;-76
2022/05/09 07:26:28;;;;;;;1.90;1.60;;;;;;;;;;5054029;28;20025;-75
2022/05/09 07:28:53;;;;;;;2.83;2.28;;;;;;;;;;5054545;28;20025;-74
2022/05/09 07:31:19;;;;;;;3.40;2.03;;;;;;;;;;5054142;28;20429;-74
2022/05/09 07:33:44;;;;;;;4.95;2.08;;;;;;;;;;5054058;28;20997;-74
2022/05/09 07:36:11;;;;;;;4.05;2.30;;;;;;;;;;5053839;28;20020;-74
2022/05/09 07:38:37;;;;;;;4.72;1.98;;;;;;;;;;5051558;28;20431;-74
2022/05/09 07:41:02;;;;;;;4.97;2.13;;;;;;;;;;5050030;28;20020;-75
2022/05/09 07:43:29;;;;;;;4.05;2.05;;;;;;;;;;5050062;28;20596;-75
2022/05/09 07:45:55;;;;;;;3.53;1.65;;;;;;;;;;5050172;28;20487;-74
2022/05/09 07:48:21;;;;;;;2.92;1.40;;;;;;;;;;5049808;28;20041;-74
2022/05/09 07:50:47;;;;;;;2.85;2.25;;;;;;;;;;5049925;28;20560;-74
2022/05/09 07:53:14;;;;;;;6.38;3.97;;;;;;;;;;5050095;28;20163;-74
2022/05/09 07:55:40;;;;;;;4.68;4.03;;;;;;;;;;5049718;28;20051;-75
2022/05/09 07:58:09;;;;;;;2.50;1.90;;;;;;;;;;5050045;28;20426;-74
2022/05/09 08:00:41;;;;;;;5.22;2.10;;;;;;;;;;5050933;28;20013;-75
2022/05/09 08:03:12;;;;;;;4.18;2.30;;;;;;;;;;5053523;28;20033;-75
2022/05/09 08:05:42;;;;;;;;;;;;;;;;;;5053988;28;20071;-75
2022/05/09 08:08:07;;;;;;;3.80;1.80;;;;;;;;;;5053673;28;19970;-74
2022/05/09 08:10:33;;;;;;;4.88;2.10;;;;;;;;;;5053281;28;20453;-74
2022/05/09 08:12:58;;;;;;;5.15;3.70;;;;;;;;;;5050766;28;20021;-75
2022/05/09 08:15:36;;;;;;;9.67;6.90;;;;;;;;;;5048754;28;20013;-74
2022/05/09 08:18:02;;;;;;;9.98;4.72;;;;;;;;;;5051214;28;20350;-74
2022/05/09 08:20:30;;;;;;;4.95;2.42;;;;;;;;;;5052994;28;20840;-74
2022/05/09 08:23:20;;;;;;;8.60;5.50;;;;;;;;;;5053475;28;20032;-74
2022/05/09 08:25:47;;;;;;;12.43;2.58;;;;;;;;;;5053118;28;20102;-74
2022/05/09 08:28:17;;;;;;;4.57;2.97;;;;;;;;;;5053119;28;20024;-76
2022/05/09 08:30:43;;;;;;;4.57;3.35;;;;;;;;;;5053539;28;20495;-75
2022/05/09 08:33:16;;;;;;;7.30;3.17;;;;;;;;;;5053255;28;20064;-75
2022/05/09 08:35:45;;;;;;;3.33;1.80;;;;;;;;;;5053071;28;20025;-75
2022/05/09 08:38:13;;;;;;;3.88;2.42;;;;;;;;;;5053399;28;20104;-74
2022/05/09 08:40:45;;;;;;;3.60;1.33;;;;;;;;;;5053058;28;20027;-75
2022/05/09 08:43:33;;;;;;;5.45;1.85;;;;;;;;;;5052617;28;20587;-74
2022/05/09 08:46:09;;;;;;;3.95;2.60;;;;;;;;;;5051422;28;20029;-73
2022/05/09 08:48:36;;;;;;;6.03;2.00;;;;;;;;;;5052620;28;20037;-76
2022/05/09 08:51:07;;;;;;;3.88;1.98;;;;;;;;;;5053005;28;20017;-75
2022/05/09 08:53:35;;;;;;;3.50;1.92;;;;;;;;;;5051286;28;20056;-74
2022/05/09 08:56:01;;;;;;;2.30;1.27;;;;;;;;;;5052530;28;20029;-75
2022/05/09 08:58:41;;;;;;;3.25;1.70;;;;;;;;;;5052851;28;20037;-75
2022/05/09 09:01:15;;;;;;;5.75;1.98;;;;;;;;;;5053070;28;20036;-75
2022/05/09 09:03:44;;;;;;;3.45;1.90;;;;;;;;;;5034765;28;20036;-75
2022/05/09 09:06:16;;;;;;;5.45;2.30;;;;;;;;;;5048839;28;20017;-75
2022/05/09 09:09:02;;;;;;;2.85;2.33;;;;;;;;;;5049360;28;20037;-75
2022/05/09 09:11:31;;;;;;;2.20;1.75;;;;;;;;;;5031142;28;20044;-75
2022/05/09 09:14:08;;;;;;;1.60;1.48;;;;;;;;;;5048919;28;20072;-75
2022/05/09 09:16:48;;;;;;;3.38;2.45;;;;;;;;;;5030808;28;20029;-75
2022/05/09 09:19:39;;;;;;;3.00;2.00;;;;;;;;;;5048736;28;20504;-75
2022/05/09 09:22:23;;;;;;;4.82;1.98;;;;;;;;;;5049238;28;20033;-75
2022/05/09 09:25:07;;;;;;;6.82;2.67;;;;;;;;;;5048625;28;20039;-75
2022/05/09 09:27:41;;;;;;;3.35;2.17;;;;;;;;;;5048665;28;20438;-74
2022/05/09 09:30:11;;;;;;;5.45;2.17;;;;;;;;;;5048927;28;20040;-75
2022/05/09 09:32:41;;;;;;;2.33;2.05;;;;;;;;;;5048772;28;20029;-74
2022/05/09 09:35:13;;;;;;;4.00;2.03;;;;;;;;;;5030631;28;20075;-74
2022/05/09 09:38:10;;;;;;;4.07;2.30;;;;;;;;;;5048766;28;20029;-74
2022/05/09 09:40:36;;;;;;;4.53;2.28;;;;;;;;;;4999001;28;20060;-75
2022/05/09 09:43:02;;;;;;;3.60;2.60;;;;;;;;;;5048588;28;20033;-74
2022/05/09 09:45:50;;;;;;;2.58;1.95;;;;;;;;;;5048555;28;20045;-75
2022/05/09 09:48:24;;;;;;;3.67;2.10;;;;;;;;;;5031160;28;20044;-74
2022/05/09 09:50:59;;;;;;;6.65;2.53;;;;;;;;;;5049350;28;20033;-75
2022/05/09 09:53:51;;;;;;;4.07;2.03;;;;;;;;;;5050771;28;20102;-75
2022/05/09 09:56:22;;;;;;;5.93;2.00;;;;;;;;;;5047854;28;20049;-75
2022/05/09 09:58:49;;;;;;;2.65;1.67;;;;;;;;;;5052147;28;20039;-75
2022/05/09 10:01:21;;;;;;;4.20;1.83;;;;;;;;;;5051978;28;20021;-75
2022/05/09 10:03:48;;;;;;;5.30;2.10;;;;;;;;;;5051910;28;20124;-75
2022/05/09 10:06:18;;;;;;;4.28;2.33;;;;;;;;;;5033909;28;20465;-75
2022/05/09 10:08:44;;;;;;;3.28;2.22;;;;;;;;;;5051870;28;20518;-75
2022/05/09 10:11:11;;;;;;;6.30;2.00;;;;;;;;;;5051751;28;20056;-75
2022/05/09 10:13:48;;;;;;;3.28;1.90;;;;;;;;;;5051829;28;20041;-75
2022/05/09 10:16:26;;;;;;;5.57;2.30;;;;;;;;;;5051250;28;20102;-74
2022/05/09 10:18:51;;;;;;;4.82;2.25;;;;;;;;;;5051567;28;20041;-74
2022/05/09 10:27:05;;;;;;;5.72;2.15;;;;;;;;;;5053107;28;20037;-75
2022/05/09 10:29:33;;;;;;;2.10;1.90;;;;;;;;;;5052726;28;20021;-74
2022/05/09 10:32:00;;;;;;;5.05;2.33;;;;;;;;;;5051191;28;20104;-75
2022/05/09 10:34:30;;;;;;;3.58;2.00;;;;;;;;;;5050968;28;20492;-74
2022/05/09 10:37:12;;;;;;;3.15;2.10;;;;;;;;;;5051043;28;20036;-74
2022/05/09 10:39:40;;;;;;;3.03;2.10;;;;;;;;;;5051117;28;20071;-74
2022/05/09 10:42:07;;;;;;;3.28;1.83;;;;;;;;;;5051176;28;20024;-75
2022/05/09 10:44:51;;;;;;;2.65;1.90;;;;;;;;;;5050826;28;20065;-75
2022/05/09 10:47:16;;;;;;;3.30;2.00;;;;;;;;;;5050956;28;20086;-75
2022/05/09 10:49:50;;;;;;;4.90;2.28;;;;;;;;;;5033039;28;20245;-75
2022/05/09 10:52:32;;;;;;;5.93;2.38;;;;;;;;;;5050900;28;20028;-74
2022/05/09 10:55:20;;;;;;;2.60;1.92;;;;;;;;;;5050908;28;20033;-76
2022/05/09 10:57:50;;;;;;;3.67;2.33;;;;;;;;;;5040214;28;20055;-75
2022/05/09 11:00:21;;;;;;;2.92;2.17;;;;;;;;;;5050900;28;20041;-76
2022/05/09 11:02:54;;;;;;;5.22;2.92;;;;;;;;;;5050663;28;20033;-76
2022/05/09 11:05:23;;;;;;;3.67;2.20;;;;;;;;;;5049824;28;20416;-76
2022/05/09 11:08:01;;;;;;;4.72;2.35;;;;;;;;;;5050981;28;20047;-75
2022/05/09 11:10:59;;;;;;;3.28;2.25;;;;;;;;;;5050615;28;20032;-75
2022/05/09 11:13:34;;;;;;;3.78;2.10;;;;;;;;;;4998736;28;20045;-75
2022/05/09 11:16:13;;;;;;;4.25;2.28;;;;;;;;;;5050710;28;20037;-75
2022/05/09 11:19:01;;;;;;;2.78;2.15;;;;;;;;;;5050473;28;20029;-75
2022/05/09 11:21:38;;;;;;;4.63;2.20;;;;;;;;;;5032568;28;20036;-72
2022/05/09 11:24:19;;;;;;;6.05;1.88;;;;;;;;;;5050177;28;20108;-72
2022/05/09 11:26:47;;;;;;;5.05;2.28;;;;;;;;;;5050318;28;20532;-72
2022/05/09 11:29:24;;;;;;;6.38;2.35;;;;;;;;;;5050072;28;20060;-72
2022/05/09 11:32:07;;;;;;;4.95;2.00;;;;;;;;;;5032159;28;20115;-72
2022/05/09 11:34:51;;;;;;;3.65;1.83;;;;;;;;;;5049876;28;20068;-73
2022/05/09 11:37:22;;;;;;;3.50;2.03;;;;;;;;;;5047912;28;20123;-72
2022/05/09 11:40:03;;;;;;;4.25;2.47;;;;;;;;;;5047990;28;20037;-72
2022/05/09 11:45:24;;;;;;;2.67;1.95;;;;;;;;;;5046726;28;19917;-72
2022/05/09 11:47:55;;;;;;;13.85;2.38;;;;;;;;;;5047103;28;20035;-72
2022/05/09 11:50:44;;;;;;;4.05;2.47;;;;;;;;;;5046878;28;20116;-72
2022/05/09 11:53:10;;;;;;;3.20;2.08;;;;;;;;;;5046589;28;20102;-72
2022/05/09 11:55:36;;;;;;;2.58;2.38;;;;;;;;;;5028498;28;20025;-72
2022/05/09 11:58:02;;;;;;;10.57;2.28;;;;;;;;;;5029648;28;20043;-72
2022/05/09 12:00:47;;;;;;;3.53;2.22;;;;;;;;;;5046633;28;20067;-72
2022/05/09 12:03:13;;;;;;;6.65;2.63;;;;;;;;;;5046337;28;20037;-72
2022/05/09 12:05:38;;;;;;;7.22;2.55;;;;;;;;;;5046744;28;20119;-72
2022/05/09 12:08:12;;;;;;;5.88;2.53;;;;;;;;;;5046362;28;20112;-72
2022/05/09 12:10:38;;;;;;;8.85;3.03;;;;;;;;;;5046491;28;20068;-72
2022/05/09 12:13:05;;;;;;;4.47;2.10;;;;;;;;;;5047033;28;20112;-72
2022/05/09 12:15:33;;;;;;;37.20;6.45;;;;;;;;;;5047568;28;20028;-72
2022/05/09 12:17:58;;;;;;;11.77;3.38;;;;;;;;;;5049241;28;20116;-72
2022/05/09 12:20:27;;;;;;;3.20;2.00;;;;;;;;;;5031578;28;20127;-72
2022/05/09 12:22:56;;;;;;;3.35;2.47;;;;;;;;;;5048661;28;20033;-72
2022/05/09 12:25:34;;;;;;;4.75;2.22;;;;;;;;;;5028471;28;20041;-72
2022/05/09 12:28:18;;;;;;;4.97;2.55;;;;;;;;;;5046223;28;20040;-72
2022/05/09 12:30:46;;;;;;;3.75;2.15;;;;;;;;;;5045953;28;20035;-72
2022/05/09 12:33:19;;;;;;;7.60;2.17;;;;;;;;;;5046144;28;20021;-72
2022/05/09 12:35:45;;;;;;;6.97;2.78;;;;;;;;;;5045946;28;20033;-72
2022/05/09 12:38:11;;;;;;;5.82;2.63;;;;;;;;;;5045897;28;20342;-72
2022/05/09 12:40:37;;;;;;;3.60;2.10;;;;;;;;;;5045901;28;20032;-72
2022/05/09 12:43:02;;;;;;;2.65;1.85;;;;;;;;;;5046133;28;20040;-72
2022/05/09 12:45:28;;;;;;;2.80;1.65;;;;;;;;;;5045773;28;20033;-73
2022/05/09 12:47:54;;;;;;;2.53;1.98;;;;;;;;;;5045843;28;20021;-73
2022/05/09 12:50:26;;;;;;;2.28;1.58;;;;;;;;;;5027814;28;20033;-73
2022/05/09 12:53:04;;;;;;;2.78;2.22;;;;;;;;;;5045664;28;20118;-73
2022/05/09 12:55:52;;;;;;;3.15;1.80;;;;;;;;;;5046485;28;20089;-73
2022/05/09 12:58:26;;;;;;;4.90;1.83;;;;;;;;;;5050761;28;20025;-73
2022/05/09 13:00:56;;;;;;;3.53;2.20;;;;;;;;;;5049839;28;20029;-75
2022/05/09 13:03:21;;;;;;;2.55;2.13;;;;;;;;;;5048826;28;20100;-73
2022/05/09 13:05:46;;;;;;;3.83;2.00;;;;;;;;;;5048678;28;20037;-73
2022/05/09 13:08:15;;;;;;;3.58;2.20;;;;;;;;;;5049381;28;20329;-73
2022/05/09 13:10:54;;;;;;;5.78;2.10;;;;;;;;;;5050853;28;20021;-73
2022/05/09 13:13:27;;;;;;;2.20;1.98;;;;;;;;;;5051179;28;20025;-73
2022/05/09 13:15:53;;;;;;;2.50;1.70;;;;;;;;;;5051358;28;20487;-73
2022/05/09 13:18:22;;;;;;;3.63;1.48;;;;;;;;;;5050925;28;20099;-73
2022/05/09 13:20:49;;;;;;;3.65;1.85;;;;;;;;;;5050937;28;20032;-73
2022/05/09 13:23:15;;;;;;;2.78;2.15;;;;;;;;;;5048932;28;20017;-73
2022/05/09 13:25:50;;;;;;;2.53;1.65;;;;;;;;;;5048395;28;20044;-73
2022/05/09 13:28:19;;;;;;;3.25;1.55;;;;;;;;;;5050255;28;20373;-73
2022/05/09 13:30:49;;;;;;;5.82;2.00;;;;;;;;;;5052325;28;20017;-73
2022/05/09 13:33:19;;;;;;;2.33;2.13;;;;;;;;;;5052327;28;20037;-73
2022/05/09 13:35:49;;;;;;;3.67;2.10;;;;;;;;;;5053067;28;20024;-72
2022/05/09 13:38:24;;;;;;;2.17;1.80;;;;;;;;;;5055491;28;20029;-72
2022/05/09 13:40:51;;;;;;;2.22;2.00;;;;;;;;;;5055452;28;20056;-72
2022/05/09 13:43:21;;;;;;;2.88;1.50;;;;;;;;;;5055295;28;20468;-72
2022/05/09 13:45:47;;;;;;;2.80;1.73;;;;;;;;;;5055393;28;20028;-72
2022/05/09 13:48:18;;;;;;;4.68;1.98;;;;;;;;;;5055905;28;20025;-72
2022/05/09 13:50:44;;;;;;;1.38;1.27;;;;;;;;;;5056517;28;20029;-72
2022/05/09 13:53:17;;;;;;;2.70;1.67;;;;;;;;;;5056631;28;20021;-73
2022/05/09 13:55:43;;;;;;;4.05;2.30;;;;;;;;;;5056854;28;20400;-74
2022/05/09 13:58:11;;;;;;;4.32;2.25;;;;;;;;;;5039241;28;20467;-74
2022/05/09 14:00:40;;;;;;;2.72;2.15;;;;;;;;;;5056549;28;20056;-74
2022/05/09 14:03:26;;;;;;;3.72;1.70;;;;;;;;;;5056247;28;20057;-74
2022/05/09 14:05:54;;;;;;;4.03;1.75;;;;;;;;;;5027999;28;20049;-74
2022/05/09 14:08:19;;;;;;;4.53;1.73;;;;;;;;;;5056333;28;20044;-74
2022/05/09 14:10:47;;;;;;;2.33;1.73;;;;;;;;;;5055941;28;20477;-74
2022/05/09 14:13:23;;;;;;;4.57;1.58;;;;;;;;;;5056110;28;20082;-74
2022/05/09 14:15:55;;;;;;;3.30;1.80;;;;;;;;;;5055981;28;20057;-74
2022/05/09 14:18:21;;;;;;;4.82;1.85;;;;;;;;;;5056183;28;20029;-74
2022/05/09 14:20:47;;;;;;;3.15;2.00;;;;;;;;;;5038022;28;20088;-74
2022/05/09 14:23:14;;;;;;;3.05;1.85;;;;;;;;;;5055802;28;20028;-74
2022/05/09 14:31:25;;;;;;;2.22;2.05;;;;;;;;;;5055698;28;20036;-74
2022/05/09 14:33:51;;;;;;;3.97;2.28;;;;;;;;;;5055601;28;20055;-74
2022/05/09 14:36:27;;;;;;;2.72;2.13;;;;;;;;;;5055562;28;20465;-74
2022/05/09 14:38:54;;;;;;;2.95;2.70;;;;;;;;;;5054926;28;20500;-74
2022/05/09 14:41:37;;;;;;;3.47;3.05;;;;;;;;;;5055272;28;20052;-74
2022/05/09 14:44:15;;;;;;;4.25;2.40;;;;;;;;;;5055424;28;20036;-74
2022/05/09 14:46:45;;;;;;;3.05;2.20;;;;;;;;;;5055440;28;20384;-74
2022/05/09 14:49:11;;;;;;;1.98;1.67;;;;;;;;;;5055401;28;20021;-74
2022/05/09 14:51:37;;;;;;;3.03;2.38;;;;;;;;;;5055298;28;20024;-74
2022/05/09 14:54:02;;;;;;;4.65;1.92;;;;;;;;;;5055220;28;20033;-74
2022/05/09 14:59:11;;;;;;;2.80;1.95;;;;;;;;;;5037224;28;20033;-74
2022/05/09 15:01:51;;;;;;;2.63;2.23;;;;;;;;;;5055097;28;20082;-74
2022/05/09 15:04:16;;;;;;;3.17;2.15;;;;;;;;;;5055202;28;20303;-74
2022/05/09 15:06:42;;;;;;;5.55;2.05;;;;;;;;;;5055097;28;20017;-74
2022/05/09 15:09:07;;;;;;;3.47;1.75;;;;;;;;;;5054898;28;20454;-74
2022/05/09 15:11:37;;;;;;;3.75;2.20;;;;;;;;;;5054721;28;20048;-74
2022/05/09 15:14:03;;;;;;;3.03;2.47;;;;;;;;;;5054804;28;20079;-74
2022/05/09 15:16:30;;;;;;;4.15;2.45;;;;;;;;;;5054854;28;20071;-74